createdAt,value
2022-08-31T00:02:02.647Z,96378.06
2022-08-31T00:04:32.958Z,96382.50
2022-08-31T00:07:01.419Z,96376.19
2022-08-31T00:09:31.166Z,96370.22
2022-08-31T00:11:59.591Z,96380.88
2022-08-31T00:14:28.748Z,96380.44
2022-08-31T00:16:57.335Z,96377.81
2022-08-31T00:19:25.938Z,96379.38
2022-08-31T00:21:55.674Z,96377.38
2022-08-31T00:24:24.029Z,96384.00
2022-08-31T00:26:52.397Z,96388.81
2022-08-31T00:29:20.702Z,96380.53
2022-08-31T00:31:49.038Z,96384.47
2022-08-31T00:34:17.461Z,96375.38
2022-08-31T00:36:47.377Z,96372.56
2022-08-31T00:39:17.042Z,96373.44
2022-08-31T00:41:45.998Z,96372.25
2022-08-31T00:44:14.352Z,96357.84
2022-08-31T00:46:44.125Z,96376.34
2022-08-31T00:49:15.532Z,96371.38
2022-08-31T00:51:46.177Z,96372.47
2022-08-31T00:54:18.160Z,96371.94
2022-08-31T00:56:46.559Z,96374.38
2022-08-31T00:59:15.815Z,96374.06
2022-08-31T01:01:44.243Z,96366.94
2022-08-31T01:04:12.795Z,96369.41
2022-08-31T01:06:41.410Z,96373.28
2022-08-31T01:09:10.146Z,96375.88
2022-08-31T01:11:41.541Z,96365.31
2022-08-31T01:14:10.914Z,96370.44
2022-08-31T01:16:42.840Z,96373.38
2022-08-31T01:19:17.725Z,96375.81
2022-08-31T01:21:50.884Z,96377.00
2022-08-31T01:24:21.223Z,96373.06
2022-08-31T01:26:55.623Z,96375.06
2022-08-31T01:29:24.241Z,96376.88
2022-08-31T01:31:52.569Z,96374.19
2022-08-31T01:34:20.881Z,96368.31
2022-08-31T01:36:49.636Z,96371.00
2022-08-31T01:39:18.034Z,96367.31
2022-08-31T01:41:47.772Z,96370.44
2022-08-31T01:44:18.536Z,96376.50
2022-08-31T01:46:47.199Z,96375.00
2022-08-31T01:49:16.486Z,96370.44
2022-08-31T01:51:45.288Z,96377.81
2022-08-31T01:54:13.850Z,96380.53
2022-08-31T01:56:44.246Z,96380.53
2022-08-31T01:59:14.206Z,96380.88
2022-08-31T02:01:44.575Z,96379.22
2022-08-31T02:04:15.717Z,96376.13
2022-08-31T02:06:45.908Z,96372.69
2022-08-31T02:09:14.983Z,96372.47
2022-08-31T02:11:43.386Z,96375.00
2022-08-31T02:14:13.117Z,96374.19
2022-08-31T02:16:41.706Z,96369.75
2022-08-31T02:19:10.368Z,96365.06
2022-08-31T02:21:38.885Z,96362.75
2022-08-31T02:24:07.807Z,96362.63
2022-08-31T02:26:36.178Z,96368.44
2022-08-31T02:29:04.800Z,96370.84
2022-08-31T02:31:34.543Z,96359.44
2022-08-31T02:34:03.162Z,96362.00
2022-08-31T02:36:34.808Z,96369.56
2022-08-31T02:39:05.923Z,96368.00
2022-08-31T02:41:34.381Z,96357.97
2022-08-31T02:44:03.207Z,96363.88
2022-08-31T02:46:31.630Z,96365.75
2022-08-31T02:49:01.735Z,96361.88
2022-08-31T02:51:30.444Z,96355.88
2022-08-31T02:53:58.927Z,96356.34
2022-08-31T02:56:27.227Z,96339.53
2022-08-31T02:58:55.586Z,96342.47
2022-08-31T03:01:24.337Z,96341.31
2022-08-31T03:03:52.743Z,96348.72
2022-08-31T03:06:22.765Z,96345.31
2022-08-31T03:08:51.375Z,96344.78
2022-08-31T03:11:20.374Z,96351.63
2022-08-31T03:13:48.693Z,96350.44
2022-08-31T03:16:17.091Z,96353.06
2022-08-31T03:18:46.088Z,96348.03
2022-08-31T03:21:14.371Z,96344.94
2022-08-31T03:23:44.122Z,96350.34
2022-08-31T03:26:12.439Z,96353.81
2022-08-31T03:28:40.758Z,96362.84
2022-08-31T03:31:09.778Z,96361.28
2022-08-31T03:33:38.124Z,96356.72
2022-08-31T03:36:06.713Z,96351.00
2022-08-31T03:38:35.082Z,96365.72
2022-08-31T03:41:04.710Z,96366.91
2022-08-31T03:43:33.069Z,96369.84
2022-08-31T03:46:01.394Z,96374.81
2022-08-31T03:48:29.760Z,96373.25
2022-08-31T03:50:58.203Z,96375.84
2022-08-31T03:53:27.088Z,96375.41
2022-08-31T03:56:01.063Z,96380.06
2022-08-31T03:58:31.374Z,96385.25
2022-08-31T04:00:59.793Z,96388.59
2022-08-31T04:03:29.380Z,96399.63
2022-08-31T04:05:57.665Z,96394.31
2022-08-31T04:08:26.284Z,96398.41
2022-08-31T04:10:54.906Z,96397.72
2022-08-31T04:13:29.393Z,96396.41
2022-08-31T04:16:01.831Z,96385.66
2022-08-31T04:18:30.157Z,96390.22
2022-08-31T04:20:58.555Z,96389.91
2022-08-31T04:23:29.917Z,96389.59
2022-08-31T04:25:58.853Z,96392.75
2022-08-31T04:28:27.148Z,96401.19
2022-08-31T04:30:55.574Z,96399.59
2022-08-31T04:33:25.402Z,96393.53
2022-08-31T04:35:53.775Z,96395.94
2022-08-31T04:38:22.054Z,96392.72
2022-08-31T04:40:52.398Z,96402.34
2022-08-31T04:43:20.849Z,96405.31
2022-08-31T04:45:52.616Z,96402.25
2022-08-31T04:48:20.910Z,96398.91
2022-08-31T04:50:50.813Z,96400.00
2022-08-31T04:53:19.207Z,96392.22
2022-08-31T04:55:47.571Z,96395.66
2022-08-31T04:58:17.652Z,96398.94
2022-08-31T05:00:45.932Z,96399.06
2022-08-31T05:03:14.255Z,96411.19
2022-08-31T05:05:42.875Z,96406.38
2022-08-31T05:08:12.546Z,96408.16
2022-08-31T05:10:41.592Z,96407.31
2022-08-31T05:13:09.850Z,96402.28
2022-08-31T05:15:42.589Z,96400.66
2022-08-31T05:18:11.263Z,96403.47
2022-08-31T05:20:40.317Z,96414.25
2022-08-31T05:23:08.614Z,96409.94
2022-08-31T05:25:39.972Z,96408.81
2022-08-31T05:28:09.030Z,96408.47
2022-08-31T05:30:37.347Z,96414.06
2022-08-31T05:33:05.824Z,96414.88
2022-08-31T05:35:35.477Z,96410.09
2022-08-31T05:38:03.942Z,96411.31
2022-08-31T05:40:32.303Z,96408.63
2022-08-31T05:43:01.962Z,96406.59
2022-08-31T05:45:30.266Z,96411.69
2022-08-31T05:47:58.631Z,96411.25
2022-08-31T05:50:26.922Z,96407.72
2022-08-31T05:52:55.230Z,96412.13
2022-08-31T05:55:23.510Z,96410.78
2022-08-31T05:57:52.699Z,96410.81
2022-08-31T06:00:22.886Z,96410.06
2022-08-31T06:02:53.837Z,96410.41
2022-08-31T06:05:22.586Z,96414.25
2022-08-31T06:07:51.090Z,96415.38
2022-08-31T06:10:20.931Z,96420.53
2022-08-31T06:12:50.095Z,96419.69
2022-08-31T06:15:18.428Z,96426.06
2022-08-31T06:17:48.149Z,96423.53
2022-08-31T06:20:18.031Z,96427.13
2022-08-31T06:22:46.695Z,96429.94
2022-08-31T06:25:19.337Z,96438.88
2022-08-31T06:27:49.157Z,96441.22
2022-08-31T06:30:19.246Z,96438.13
2022-08-31T06:32:48.983Z,96444.22
2022-08-31T06:35:18.521Z,96448.78
2022-08-31T06:37:46.895Z,96440.94
2022-08-31T06:40:15.377Z,96447.13
2022-08-31T06:42:43.747Z,96446.50
2022-08-31T06:45:13.596Z,96446.59
2022-08-31T06:47:41.940Z,96447.66
2022-08-31T06:50:12.474Z,96450.41
2022-08-31T06:55:27.316Z,96454.25
2022-08-31T06:57:55.678Z,96451.56
2022-08-31T07:00:24.054Z,96444.72
2022-08-31T07:02:57.643Z,96439.78
2022-08-31T07:05:27.706Z,96450.25
2022-08-31T07:07:56.027Z,96455.28
2022-08-31T07:10:24.356Z,96453.75
2022-08-31T07:12:52.710Z,96460.69
2022-08-31T07:15:21.049Z,96458.75
2022-08-31T07:17:51.747Z,96464.13
2022-08-31T07:20:20.173Z,96470.38
2022-08-31T07:22:49.794Z,96470.72
2022-08-31T07:25:18.387Z,96469.53
2022-08-31T07:27:46.941Z,96470.38
2022-08-31T07:30:15.239Z,96471.06
2022-08-31T07:32:43.639Z,96474.59
2022-08-31T07:35:11.970Z,96469.56
2022-08-31T07:37:58.325Z,96476.00
2022-08-31T07:40:45.495Z,96479.25
2022-08-31T07:43:14.388Z,96471.50
2022-08-31T07:45:43.885Z,96474.31
2022-08-31T07:48:12.367Z,96471.09
2022-08-31T07:50:46.844Z,96467.03
2022-08-31T07:53:15.342Z,96479.25
2022-08-31T07:55:48.907Z,96476.00
2022-08-31T07:58:17.714Z,96466.91
2022-08-31T08:00:48.664Z,96464.16
2022-08-31T08:03:17.110Z,96468.13
2022-08-31T08:05:47.413Z,96471.78
2022-08-31T08:08:16.861Z,96472.09
2022-08-31T08:10:52.724Z,96475.53
2022-08-31T08:13:23.231Z,96473.47
2022-08-31T08:15:52.283Z,96478.06
2022-08-31T08:18:21.377Z,96480.00
2022-08-31T08:20:49.959Z,96483.47
2022-08-31T08:23:27.896Z,96483.75
2022-08-31T08:26:01.467Z,96476.56
2022-08-31T08:28:40.807Z,96481.38
2022-08-31T08:31:14.502Z,96481.97
2022-08-31T08:33:43.215Z,96492.28
2022-08-31T08:36:11.761Z,96493.34
2022-08-31T08:38:43.817Z,96492.63
2022-08-31T08:41:14.819Z,96490.03
2022-08-31T08:43:52.885Z,96498.16
2022-08-31T08:46:34.894Z,96496.84
2022-08-31T08:49:13.155Z,96503.28
2022-08-31T08:51:41.634Z,96498.84
2022-08-31T08:54:12.432Z,96500.47
2022-08-31T08:56:47.162Z,96502.78
2022-08-31T08:59:19.911Z,96500.63
2022-08-31T09:01:50.725Z,96503.13
2022-08-31T09:04:26.733Z,96502.19
2022-08-31T09:07:02.536Z,96504.63
2022-08-31T09:09:34.737Z,96509.84
2022-08-31T09:12:19.037Z,96505.22
2022-08-31T09:15:28.325Z,96508.41
2022-08-31T09:18:00.637Z,96512.75
2022-08-31T09:20:33.746Z,96514.75
2022-08-31T09:23:07.878Z,96514.47
2022-08-31T09:25:38.909Z,96500.69
2022-08-31T09:28:08.753Z,96500.53
2022-08-31T09:30:56.087Z,96501.88
2022-08-31T09:33:28.095Z,96499.53
2022-08-31T09:36:14.713Z,96505.41
2022-08-31T09:38:45.525Z,96502.88
2022-08-31T09:41:23.342Z,96498.72
2022-08-31T09:43:51.845Z,96498.03
2022-08-31T09:46:28.205Z,96485.59
2022-08-31T09:48:58.342Z,96494.25
2022-08-31T09:51:28.196Z,96498.25
2022-08-31T09:54:18.671Z,96492.03
2022-08-31T09:56:55.473Z,96492.94
2022-08-31T09:59:38.451Z,96491.63
2022-08-31T10:02:12.118Z,96491.19
2022-08-31T10:04:51.141Z,96486.94
2022-08-31T10:07:38.063Z,96492.19
2022-08-31T10:10:28.033Z,96494.72
2022-08-31T10:13:01.612Z,96501.47
2022-08-31T10:15:35.443Z,96501.38
2022-08-31T10:18:13.807Z,96502.50
2022-08-31T10:20:46.512Z,96502.13
2022-08-31T10:23:20.796Z,96503.06
2022-08-31T10:25:54.612Z,96507.97
2022-08-31T10:28:31.796Z,96510.94
2022-08-31T10:31:02.341Z,96518.16
2022-08-31T10:33:56.891Z,96509.22
2022-08-31T10:36:33.082Z,96514.66
2022-08-31T10:39:02.256Z,96513.25
2022-08-31T10:41:34.197Z,96509.81
2022-08-31T10:44:07.732Z,96518.00
2022-08-31T10:46:36.791Z,96522.44
2022-08-31T10:49:07.443Z,96522.69
2022-08-31T10:51:41.849Z,96525.81
2022-08-31T10:54:24.708Z,96520.50
2022-08-31T10:57:00.714Z,96534.94
2022-08-31T10:59:35.207Z,96530.91
2022-08-31T11:02:24.844Z,96545.22
2022-08-31T11:05:01.808Z,96559.63
2022-08-31T11:07:41.354Z,96561.22
2022-08-31T11:10:24.920Z,96561.34
2022-08-31T11:12:57.526Z,96566.34
2022-08-31T11:15:51.585Z,96566.91
2022-08-31T11:18:48.606Z,96569.66
2022-08-31T11:21:41.428Z,96578.88
2022-08-31T11:24:23.144Z,96575.09
2022-08-31T11:26:54.007Z,96587.72
2022-08-31T11:29:43.250Z,96586.84
2022-08-31T11:32:20.042Z,96578.75
2022-08-31T11:34:51.462Z,96585.13
2022-08-31T11:37:54.368Z,96584.09
2022-08-31T11:41:13.982Z,96579.72
2022-08-31T11:43:49.052Z,96579.81
2022-08-31T11:46:59.809Z,96571.69
2022-08-31T11:49:46.054Z,96582.91
2022-08-31T11:52:34.472Z,96587.94
2022-08-31T11:55:11.864Z,96593.88
2022-08-31T11:58:23.583Z,96586.19
2022-08-31T12:00:58.587Z,96597.63
2022-08-31T12:03:50.460Z,96594.53
2022-08-31T12:07:07.543Z,96596.09
2022-08-31T12:09:54.111Z,96601.25
2022-08-31T12:12:33.804Z,96593.00
2022-08-31T12:15:06.690Z,96594.38
2022-08-31T12:17:44.367Z,96602.78
2022-08-31T12:20:16.222Z,96599.28
2022-08-31T12:23:31.891Z,96600.03
2022-08-31T12:26:08.829Z,96601.06
2022-08-31T12:28:51.850Z,96604.13
2022-08-31T12:31:20.240Z,96602.34
2022-08-31T12:33:57.028Z,96608.22
2022-08-31T12:36:29.223Z,96605.25
2022-08-31T12:39:11.211Z,96605.69
2022-08-31T12:41:44.222Z,96605.63
2022-08-31T12:44:20.889Z,96614.75
2022-08-31T12:47:01.451Z,96614.78
2022-08-31T12:49:59.039Z,96614.94
2022-08-31T12:52:39.838Z,96614.78
2022-08-31T12:55:24.306Z,96608.81
2022-08-31T12:58:14.625Z,96602.63
2022-08-31T13:00:44.649Z,96609.09
2022-08-31T13:03:20.275Z,96610.91
2022-08-31T13:06:05.681Z,96615.94
2022-08-31T13:08:37.789Z,96622.53
2022-08-31T13:11:20.784Z,96623.31
2022-08-31T13:13:52.779Z,96614.78
2022-08-31T13:16:22.838Z,96615.56
2022-08-31T13:18:59.980Z,96622.66
2022-08-31T13:21:28.303Z,96614.25
2022-08-31T13:24:07.363Z,96618.16
2022-08-31T13:26:38.063Z,96617.88
2022-08-31T13:29:09.973Z,96616.41
2022-08-31T13:31:49.819Z,96626.09
2022-08-31T13:34:19.102Z,96622.22
2022-08-31T13:36:52.986Z,96620.06
2022-08-31T13:39:27.163Z,96621.50
2022-08-31T13:41:58.220Z,96619.91
2022-08-31T13:44:33.813Z,96616.84
2022-08-31T13:47:05.363Z,96616.72
2022-08-31T13:49:36.661Z,96614.69
2022-08-31T13:52:07.549Z,96612.84
2022-08-31T13:54:37.221Z,96608.09
2022-08-31T13:57:22.637Z,96605.47
2022-08-31T13:59:51.047Z,96604.03
2022-08-31T14:02:37.195Z,96607.72
2022-08-31T14:05:08.671Z,96595.56
2022-08-31T14:07:54.461Z,96593.41
2022-08-31T14:10:26.239Z,96600.03
2022-08-31T14:12:56.653Z,96584.28
2022-08-31T14:15:33.348Z,96592.00
2022-08-31T14:18:24.498Z,96584.38
2022-08-31T14:21:22.021Z,96587.47
2022-08-31T14:23:52.860Z,96584.94
2022-08-31T14:26:22.784Z,96580.38
2022-08-31T14:28:53.529Z,96582.81
2022-08-31T14:31:25.543Z,96584.88
2022-08-31T14:34:08.973Z,96583.91
2022-08-31T14:36:44.680Z,96583.50
2022-08-31T14:39:13.427Z,96581.28
2022-08-31T14:41:41.783Z,96586.16
2022-08-31T14:44:10.232Z,96587.50
2022-08-31T14:46:40.490Z,96585.97
2022-08-31T14:49:10.969Z,96586.72
2022-08-31T14:51:40.289Z,96590.47
2022-08-31T14:54:09.004Z,96593.47
2022-08-31T14:56:46.780Z,96588.13
2022-08-31T14:59:16.822Z,96591.38
2022-08-31T15:01:46.304Z,96585.44
2022-08-31T15:04:18.057Z,96585.78
2022-08-31T15:06:49.884Z,96585.56
2022-08-31T15:09:18.542Z,96584.84
2022-08-31T15:11:47.226Z,96600.78
2022-08-31T15:14:15.522Z,96595.78
2022-08-31T15:16:46.501Z,96613.50
2022-08-31T15:19:16.628Z,96603.22
2022-08-31T15:21:52.696Z,96607.59
2022-08-31T15:24:27.903Z,96605.84
2022-08-31T15:26:59.965Z,96610.25
2022-08-31T15:29:30.384Z,96605.81
2022-08-31T15:31:59.883Z,96603.72
2022-08-31T15:34:31.397Z,96610.47
2022-08-31T15:37:02.112Z,96598.50
2022-08-31T15:39:32.621Z,96596.84
2022-08-31T15:42:02.807Z,96598.16
2022-08-31T15:44:33.409Z,96612.50
2022-08-31T15:47:21.169Z,96604.72
2022-08-31T15:49:51.785Z,96606.69
2022-08-31T15:52:20.577Z,96604.44
2022-08-31T15:54:50.427Z,96602.06
2022-08-31T15:57:18.968Z,96600.25
2022-08-31T15:59:47.278Z,96590.84
2022-08-31T16:02:20.141Z,96597.59
2022-08-31T16:04:51.319Z,96594.31
2022-08-31T16:07:21.906Z,96597.88
2022-08-31T16:09:50.184Z,96600.72
2022-08-31T16:12:19.106Z,96593.41
2022-08-31T16:14:51.684Z,96587.38
2022-08-31T16:17:20.214Z,96590.19
2022-08-31T16:19:49.985Z,96574.53
2022-08-31T16:22:19.029Z,96585.31
2022-08-31T16:24:51.005Z,96571.47
2022-08-31T16:27:20.994Z,96576.97
2022-08-31T16:29:50.822Z,96584.50
2022-08-31T16:32:19.516Z,96593.81
2022-08-31T16:34:49.043Z,96587.63
2022-08-31T16:37:18.738Z,96589.19
2022-08-31T16:39:47.929Z,96588.41
2022-08-31T16:42:17.607Z,96594.25
2022-08-31T16:44:48.174Z,96592.63
2022-08-31T16:47:18.584Z,96600.19
2022-08-31T16:49:45.995Z,96590.94
2022-08-31T16:52:18.061Z,96591.59
2022-08-31T16:54:50.957Z,96586.38
2022-08-31T16:57:21.846Z,96593.47
2022-08-31T16:59:51.199Z,96591.22
2022-08-31T17:02:20.222Z,96605.94
2022-08-31T17:04:52.410Z,96600.22
2022-08-31T17:07:21.498Z,96602.44
2022-08-31T17:09:51.243Z,96596.91
2022-08-31T17:12:23.046Z,96595.00
2022-08-31T17:14:52.342Z,96596.41
2022-08-31T17:17:23.049Z,96591.47
2022-08-31T17:19:52.105Z,96604.78
2022-08-31T17:22:28.400Z,96607.78
2022-08-31T17:25:04.277Z,96608.91
2022-08-31T17:27:34.905Z,96603.66
2022-08-31T17:30:07.158Z,96610.13
2022-08-31T17:32:44.598Z,96614.88
2022-08-31T17:35:18.338Z,96613.75
2022-08-31T17:37:48.243Z,96609.38
2022-08-31T17:40:18.114Z,96619.50
2022-08-31T17:42:46.565Z,96618.88
2022-08-31T17:45:15.501Z,96617.97
2022-08-31T17:47:43.797Z,96621.44
2022-08-31T17:50:13.939Z,96619.00
2022-08-31T17:52:42.329Z,96630.56
2022-08-31T17:55:10.762Z,96629.19
2022-08-31T17:57:42.085Z,96635.19
2022-08-31T18:00:14.257Z,96635.28
2022-08-31T18:02:42.728Z,96647.78
2022-08-31T18:05:12.348Z,96629.16
2022-08-31T18:07:40.960Z,96638.25
2022-08-31T18:10:10.783Z,96645.03
2022-08-31T18:12:41.832Z,96643.47
2022-08-31T18:15:11.554Z,96658.69
2022-08-31T18:17:40.521Z,96650.06
2022-08-31T18:20:10.681Z,96647.09
2022-08-31T18:22:39.914Z,96650.81
2022-08-31T18:25:08.887Z,96650.28
2022-08-31T18:27:37.233Z,96648.16
2022-08-31T18:30:08.617Z,96647.41
2022-08-31T18:32:37.161Z,96644.19
2022-08-31T18:35:14.013Z,96642.03
2022-08-31T18:37:42.450Z,96648.50
2022-08-31T18:40:29.043Z,96649.47
2022-08-31T18:43:14.242Z,96648.47
2022-08-31T18:45:48.798Z,96650.44
2022-08-31T18:48:26.006Z,96647.09
2022-08-31T18:50:58.801Z,96657.28
2022-08-31T18:53:30.259Z,96663.91
2022-08-31T18:56:05.345Z,96659.22
2022-08-31T18:58:33.827Z,96670.41
2022-08-31T19:01:03.903Z,96667.19
2022-08-31T19:03:32.297Z,96669.06
2022-08-31T19:06:00.635Z,96679.47
2022-08-31T19:08:30.218Z,96661.56
2022-08-31T19:10:58.892Z,96667.09
2022-08-31T19:13:31.508Z,96659.22
2022-08-31T19:16:05.553Z,96652.75
2022-08-31T19:18:40.732Z,96658.47
2022-08-31T19:21:14.594Z,96665.31
2022-08-31T19:23:43.579Z,96663.34
2022-08-31T19:26:11.966Z,96664.19
2022-08-31T19:28:41.029Z,96668.19
2022-08-31T19:31:11.614Z,96667.50
2022-08-31T19:33:42.069Z,96658.47
2022-08-31T19:36:11.483Z,96660.09
2022-08-31T19:38:40.346Z,96666.88
2022-08-31T19:41:15.892Z,96663.09
2022-08-31T19:43:52.015Z,96652.22
2022-08-31T19:46:26.200Z,96653.38
2022-08-31T19:48:59.834Z,96655.78
2022-08-31T19:51:29.719Z,96652.66
2022-08-31T19:53:59.226Z,96653.06
2022-08-31T19:56:31.160Z,96651.94
2022-08-31T19:59:00.458Z,96644.53
2022-08-31T20:01:33.910Z,96648.25
2022-08-31T20:04:07.456Z,96653.97
2022-08-31T20:06:37.354Z,96649.91
2022-08-31T20:09:06.621Z,96649.88
2022-08-31T20:11:36.062Z,96651.16
2022-08-31T20:14:05.274Z,96648.91
2022-08-31T20:16:36.291Z,96648.09
2022-08-31T20:19:06.082Z,96641.34
2022-08-31T20:21:35.544Z,96635.09
2022-08-31T20:24:06.406Z,96632.59
2022-08-31T20:26:47.183Z,96633.47
2022-08-31T20:29:20.932Z,96622.72
2022-08-31T20:31:50.834Z,96621.09
2022-08-31T20:34:22.878Z,96633.75
2022-08-31T20:36:58.501Z,96621.53
2022-08-31T20:39:30.736Z,96629.41
2022-08-31T20:42:00.149Z,96625.34
2022-08-31T20:44:30.713Z,96631.44
2022-08-31T20:47:18.759Z,96635.47
2022-08-31T20:49:53.630Z,96643.91
2022-08-31T20:52:27.262Z,96648.94
2022-08-31T20:55:01.848Z,96643.34
2022-08-31T20:57:31.989Z,96648.28
2022-08-31T21:00:03.779Z,96647.47
2022-08-31T21:02:33.662Z,96642.78
2022-08-31T21:05:33.840Z,96643.00
2022-08-31T21:07:53.282Z,96651.25
2022-08-31T21:10:36.950Z,96647.53
2022-08-31T21:13:08.177Z,96649.19
2022-08-31T21:15:41.337Z,96652.50
2022-08-31T21:18:09.691Z,96652.50
2022-08-31T21:20:39.439Z,96656.59
2022-08-31T21:23:09.762Z,96650.31
2022-08-31T21:25:44.947Z,96644.06
2022-08-31T21:28:14.316Z,96644.25
2022-08-31T21:30:42.652Z,96650.81
2022-08-31T21:33:10.959Z,96645.84
2022-08-31T21:35:40.640Z,96650.44
2022-08-31T21:38:11.703Z,96646.28
2022-08-31T21:40:47.967Z,96658.69
2022-08-31T21:43:16.509Z,96652.91
2022-08-31T21:45:45.046Z,96653.13
2022-08-31T21:48:13.383Z,96646.09
2022-08-31T21:50:44.014Z,96648.16
2022-08-31T21:53:12.985Z,96644.03
2022-08-31T21:55:41.301Z,96639.28
2022-08-31T21:58:10.803Z,96641.97
2022-08-31T22:00:42.168Z,96645.06
2022-08-31T22:03:11.188Z,96651.66
2022-08-31T22:05:41.592Z,96643.81
2022-08-31T22:08:11.179Z,96647.56
2022-08-31T22:10:41.222Z,96650.34
2022-08-31T22:13:11.498Z,96648.78
2022-08-31T22:15:41.092Z,96651.63
2022-08-31T22:18:58.145Z,96651.59
2022-08-31T22:21:00.319Z,96640.50
2022-08-31T22:23:30.522Z,96643.72
2022-08-31T22:25:58.995Z,96641.75
2022-08-31T22:28:27.600Z,96641.53
2022-08-31T22:30:56.985Z,96639.88
2022-08-31T22:33:25.401Z,96645.28
2022-08-31T22:35:53.948Z,96640.06
2022-08-31T22:38:22.504Z,96651.53
2022-08-31T22:40:52.460Z,96653.19
2022-08-31T22:43:20.820Z,96647.56
2022-08-31T22:45:49.539Z,96649.59
2022-08-31T22:48:18.383Z,96655.44
2022-08-31T22:50:46.925Z,96666.44
2022-08-31T22:53:15.798Z,96652.59
2022-08-31T22:55:44.461Z,96655.34
2022-08-31T22:58:14.269Z,96655.34
2022-08-31T23:00:48.042Z,96649.41
2022-08-31T23:03:16.483Z,96644.06
2022-08-31T23:05:45.041Z,96636.94
2022-08-31T23:08:13.877Z,96640.09
2022-08-31T23:10:42.563Z,96630.22
2022-08-31T23:13:10.931Z,96632.88
2022-08-31T23:15:41.246Z,96634.50
2022-08-31T23:18:10.537Z,96622.91
2022-08-31T23:20:41.890Z,96630.13
2022-08-31T23:23:10.525Z,96624.75
2022-08-31T23:25:40.261Z,96618.09
2022-08-31T23:28:08.761Z,96623.56
2022-08-31T23:30:38.068Z,96620.63
2022-08-31T23:33:07.918Z,96620.50
2022-08-31T23:35:36.435Z,96618.25
2022-08-31T23:38:04.853Z,96615.13
2022-08-31T23:40:34.044Z,96624.03
2022-08-31T23:43:02.517Z,96621.94
2022-08-31T23:45:32.022Z,96625.03
2022-08-31T23:48:00.353Z,96614.94
2022-08-31T23:50:30.113Z,96607.31
2022-08-31T23:52:58.423Z,96605.03
2022-08-31T23:55:29.049Z,96602.09
2022-08-31T23:57:59.313Z,96606.25
